createdAt,value
2022-08-27T00:00:02.002Z,19.67
2022-08-27T00:05:23.854Z,19.77
2022-08-27T00:10:48.427Z,19.79
2022-08-27T00:16:22.314Z,19.69
2022-08-27T00:21:44.152Z,19.85
2022-08-27T00:27:07.605Z,19.79
2022-08-27T00:32:32.973Z,19.77
2022-08-27T00:37:54.728Z,19.91
2022-08-27T00:43:31.689Z,19.75
2022-08-27T00:48:57.213Z,19.81
2022-08-27T00:54:20.757Z,19.92
2022-08-27T00:59:44.373Z,19.84
2022-08-27T01:05:11.858Z,19.94
2022-08-27T01:10:34.350Z,19.50
2022-08-27T01:15:59.020Z,19.37
2022-08-27T01:21:36.151Z,19.36
2022-08-27T01:26:59.503Z,19.61
2022-08-27T01:32:27.618Z,19.47
2022-08-27T01:37:53.610Z,19.45
2022-08-27T01:43:18.999Z,19.67
2022-08-27T01:48:40.722Z,19.63
2022-08-27T01:54:03.078Z,19.42
2022-08-27T01:59:25.641Z,19.42
2022-08-27T02:05:01.760Z,19.51
2022-08-27T02:10:27.263Z,19.38
2022-08-27T02:15:49.172Z,19.36
2022-08-27T02:21:10.997Z,19.25
2022-08-27T02:26:32.801Z,19.36
2022-08-27T02:31:54.590Z,19.38
2022-08-27T02:37:16.345Z,19.33
2022-08-27T02:42:38.149Z,19.24
2022-08-27T02:47:59.894Z,19.29
2022-08-27T02:53:21.807Z,19.26
2022-08-27T02:58:45.884Z,19.35
2022-08-27T03:04:10.457Z,19.19
2022-08-27T03:09:34.290Z,19.23
2022-08-27T03:14:56.031Z,19.33
2022-08-27T03:20:18.824Z,19.26
2022-08-27T03:25:44.937Z,19.13
2022-08-27T03:31:13.124Z,19.12
2022-08-27T03:36:34.879Z,19.02
2022-08-27T03:41:56.585Z,18.91
2022-08-27T03:47:18.693Z,19.10
2022-08-27T03:52:40.426Z,19.25
2022-08-27T03:58:02.751Z,19.31
2022-08-27T04:03:24.708Z,19.16
2022-08-27T04:08:46.493Z,19.04
2022-08-27T04:14:14.532Z,19.04
2022-08-27T04:19:48.379Z,18.83
2022-08-27T04:25:10.082Z,18.85
2022-08-27T04:30:33.393Z,18.85
2022-08-27T04:35:59.780Z,18.84
2022-08-27T04:41:22.306Z,18.85
2022-08-27T04:46:49.245Z,18.87
2022-08-27T04:52:11.385Z,18.91
2022-08-27T04:57:34.778Z,18.83
2022-08-27T05:02:56.514Z,18.88
2022-08-27T05:08:18.302Z,18.96
2022-08-27T05:13:40.480Z,18.98
2022-08-27T05:19:05.462Z,19.13
2022-08-27T05:24:27.210Z,19.08
2022-08-27T05:29:48.909Z,18.95
2022-08-27T05:35:15.115Z,19.08
2022-08-27T05:40:38.741Z,19.10
2022-08-27T05:46:05.757Z,19.05
2022-08-27T05:51:32.806Z,19.09
2022-08-27T05:56:54.558Z,19.06
2022-08-27T06:02:16.354Z,19.10
2022-08-27T06:07:38.226Z,19.25
2022-08-27T06:12:59.950Z,19.34
2022-08-27T06:18:21.649Z,19.29
2022-08-27T06:23:43.453Z,19.24
2022-08-27T06:29:08.000Z,19.29
2022-08-27T06:34:29.729Z,19.28
2022-08-27T06:39:51.588Z,19.38
2022-08-27T06:45:13.426Z,19.46
2022-08-27T06:50:43.061Z,19.42
2022-08-27T06:56:05.285Z,19.46
2022-08-27T07:01:32.904Z,19.41
2022-08-27T07:06:54.650Z,19.42
2022-08-27T07:12:16.372Z,19.50
2022-08-27T07:17:38.085Z,19.46
2022-08-27T07:23:00.202Z,19.68
2022-08-27T07:28:22.260Z,19.80
2022-08-27T07:33:45.988Z,19.82
2022-08-27T07:39:15.635Z,19.89
2022-08-27T07:44:37.390Z,19.93
2022-08-27T07:49:59.191Z,19.84
2022-08-27T07:55:21.000Z,19.77
2022-08-27T08:00:44.867Z,19.71
2022-08-27T08:06:12.557Z,19.62
2022-08-27T08:11:34.775Z,19.66
2022-08-27T08:17:01.325Z,19.64
2022-08-27T08:22:23.078Z,19.55
2022-08-27T08:27:45.120Z,19.49
2022-08-27T08:33:06.932Z,19.57
2022-08-27T08:38:28.622Z,19.67
2022-08-27T08:43:51.671Z,19.67
2022-08-27T08:49:33.100Z,19.68
2022-08-27T08:55:37.569Z,19.86
2022-08-27T09:01:01.936Z,19.86
2022-08-27T09:06:47.366Z,19.90
2022-08-27T09:12:22.186Z,19.89
2022-08-27T09:17:47.636Z,19.91
2022-08-27T09:23:37.018Z,19.79
2022-08-27T09:29:17.153Z,19.65
2022-08-27T09:34:42.221Z,19.68
2022-08-27T09:40:13.423Z,19.65
2022-08-27T09:45:50.672Z,19.69
2022-08-27T09:51:21.715Z,19.61
2022-08-27T09:56:49.177Z,19.67
2022-08-27T10:02:19.967Z,19.67
2022-08-27T10:08:16.840Z,19.62
2022-08-27T10:14:05.922Z,19.56
2022-08-27T10:19:49.305Z,19.67
2022-08-27T10:25:34.640Z,19.75
2022-08-27T10:31:22.544Z,19.84
2022-08-27T10:37:11.771Z,19.75
2022-08-27T10:42:57.795Z,19.80
2022-08-27T10:48:26.942Z,19.88
2022-08-27T10:54:13.158Z,19.93
2022-08-27T11:00:12.760Z,19.95
2022-08-27T11:05:41.768Z,19.90
2022-08-27T11:17:12.498Z,19.93
2022-08-27T11:22:40.286Z,19.82
2022-08-27T11:28:05.982Z,19.87
2022-08-27T11:33:42.685Z,19.79
2022-08-27T11:39:31.726Z,19.79
2022-08-27T11:45:03.129Z,19.76
2022-08-27T11:50:26.652Z,19.74
2022-08-27T11:55:48.657Z,19.82
2022-08-27T12:01:26.278Z,19.79
2022-08-27T12:07:06.421Z,19.91
2022-08-27T12:13:00.543Z,19.97
2022-08-27T12:18:36.979Z,19.93
2022-08-27T12:24:19.884Z,19.94
2022-08-27T12:29:48.701Z,19.97
2022-08-27T12:35:32.656Z,20.13
2022-08-27T12:41:00.201Z,20.13
2022-08-27T12:46:22.456Z,20.19
2022-08-27T12:51:45.189Z,20.11
2022-08-27T12:57:31.329Z,20.09
2022-08-27T13:03:06.891Z,20.14
2022-08-27T13:08:36.111Z,20.25
2022-08-27T13:14:09.920Z,20.29
2022-08-27T13:19:35.117Z,20.29
2022-08-27T13:24:57.595Z,20.34
2022-08-27T13:30:35.822Z,20.31
2022-08-27T13:36:00.701Z,20.26
2022-08-27T13:41:32.466Z,20.32
2022-08-27T13:47:01.973Z,20.48
2022-08-27T13:53:01.502Z,20.58
2022-08-27T13:58:33.924Z,20.62
2022-08-27T14:04:06.494Z,20.63
2022-08-27T14:09:30.135Z,20.73
2022-08-27T14:14:54.436Z,20.87
2022-08-27T14:20:18.181Z,20.97
2022-08-27T14:25:41.131Z,21.08
2022-08-27T14:31:02.976Z,20.99
2022-08-27T14:36:27.201Z,20.92
2022-08-27T14:41:49.039Z,20.95
2022-08-27T14:47:13.401Z,20.96
2022-08-27T14:52:35.934Z,20.91
2022-08-27T14:57:58.785Z,20.84
2022-08-27T15:03:20.604Z,20.82
2022-08-27T15:08:44.741Z,20.80
2022-08-27T15:14:14.108Z,20.81
2022-08-27T15:19:36.155Z,20.88
2022-08-27T15:24:58.577Z,20.82
2022-08-27T15:30:25.223Z,20.80
2022-08-27T15:35:47.011Z,20.85
2022-08-27T15:41:10.264Z,20.82
2022-08-27T15:46:32.119Z,20.81
2022-08-27T15:51:55.220Z,20.79
2022-08-27T15:57:21.023Z,20.73
2022-08-27T16:02:43.844Z,20.73
2022-08-27T16:08:06.695Z,20.77
2022-08-27T16:13:28.654Z,20.70
2022-08-27T16:18:50.550Z,20.74
2022-08-27T16:24:13.368Z,20.66
2022-08-27T16:29:35.287Z,20.73
2022-08-27T16:34:57.796Z,20.76
2022-08-27T16:40:19.626Z,20.72
2022-08-27T16:45:41.861Z,20.74
2022-08-27T16:51:06.686Z,20.74
2022-08-27T16:56:28.629Z,20.81
2022-08-27T17:01:53.077Z,20.73
2022-08-27T17:07:14.822Z,20.77
2022-08-27T17:12:36.534Z,20.62
2022-08-27T17:17:59.462Z,20.55
2022-08-27T17:23:35.983Z,20.46
2022-08-27T17:28:59.261Z,20.47
2022-08-27T17:34:23.665Z,20.37
2022-08-27T17:39:45.513Z,20.42
2022-08-27T17:45:07.795Z,20.37
2022-08-27T17:50:29.578Z,20.28
2022-08-27T17:55:51.370Z,20.28
2022-08-27T18:01:16.174Z,20.21
2022-08-27T18:06:39.363Z,20.26
2022-08-27T18:12:01.176Z,20.24
2022-08-27T18:17:23.005Z,20.16
2022-08-27T18:22:48.376Z,20.12
2022-08-27T18:28:13.103Z,20.14
2022-08-27T18:33:36.242Z,20.03
2022-08-27T18:38:58.181Z,20.04
2022-08-27T18:44:19.938Z,20.08
2022-08-27T18:49:41.655Z,20.19
2022-08-27T18:55:08.068Z,20.29
2022-08-27T19:00:29.866Z,20.25
2022-08-27T19:05:55.014Z,20.23
2022-08-27T19:11:17.927Z,20.12
2022-08-27T19:16:42.948Z,20.09
2022-08-27T19:22:06.812Z,20.16
2022-08-27T19:27:30.301Z,20.00
2022-08-27T19:32:54.678Z,19.83
2022-08-27T19:38:16.920Z,19.69
2022-08-27T19:43:38.706Z,19.78
2022-08-27T19:49:06.592Z,19.62
2022-08-27T19:54:32.638Z,19.59
2022-08-27T19:59:55.566Z,19.59
2022-08-27T20:05:19.962Z,19.78
2022-08-27T20:10:41.946Z,19.84
2022-08-27T20:16:04.339Z,19.63
2022-08-27T20:21:26.233Z,19.77
2022-08-27T20:26:48.062Z,19.71
2022-08-27T20:32:09.910Z,19.62
2022-08-27T20:37:31.750Z,19.54
2022-08-27T20:42:53.570Z,19.55
2022-08-27T20:48:15.670Z,19.52
2022-08-27T20:53:37.393Z,19.42
2022-08-27T20:59:17.518Z,19.34
2022-08-27T21:04:43.239Z,19.20
2022-08-27T21:10:06.643Z,18.99
2022-08-27T21:15:28.510Z,19.04
2022-08-27T21:20:50.274Z,19.10
2022-08-27T21:26:13.460Z,19.11
2022-08-27T21:31:35.317Z,19.02
2022-08-27T21:36:57.937Z,18.90
2022-08-27T21:42:19.762Z,18.86
2022-08-27T21:47:41.609Z,18.97
2022-08-27T21:53:03.485Z,18.98
2022-08-27T21:58:26.779Z,18.96
2022-08-27T22:03:51.557Z,18.90
2022-08-27T22:09:13.268Z,19.01
2022-08-27T22:14:37.657Z,18.96
2022-08-27T22:19:59.368Z,18.99
2022-08-27T22:25:21.141Z,19.11
2022-08-27T22:30:43.026Z,19.20
2022-08-27T22:36:05.037Z,19.28
2022-08-27T22:41:26.771Z,19.30
2022-08-27T22:46:49.532Z,19.36
2022-08-27T22:52:11.489Z,19.33
2022-08-27T22:57:35.561Z,19.26
2022-08-27T23:02:57.940Z,19.40
2022-08-27T23:08:19.744Z,19.35
2022-08-27T23:13:41.843Z,19.14
2022-08-27T23:19:03.682Z,19.03
2022-08-27T23:24:25.972Z,19.13
2022-08-27T23:29:48.829Z,19.11
2022-08-27T23:35:12.377Z,19.17
2022-08-27T23:40:34.153Z,19.08
2022-08-27T23:45:56.164Z,19.00
2022-08-27T23:51:17.866Z,18.99
2022-08-27T23:56:39.593Z,19.00
